16:35
Airports
History
Links
Donate
Help keep this website running!
PayPal
Bitcoin
This page is community maintained. The information is intended for PC simulator navigation or reference.
Always use approved charts for navigation.
OPPC
Parachinar
Parachinar (OPPC)
Parachinar, Federally Administered Tribal , Pakistan
(C)
Lat/Lng:33° 54' 10" N / 70° 4' 17" E
33.902778 / 70.071389
Elevation:5799'ft / 1768mMSL
ID / ICAO:OPPC
Runways:1
Longest:16-34
Asphalt 1,223m / 4,013ft
Controlled:Yes
Nearby Weather15:55 GMT 2017-09-23
Nearby weather at OAJL, JALALABAD located 42.1 nautical miles from OPPC
Altimeter: 29.76
Visibility: 5.0 statute miles
Wind: 3 knots (from VRB°)
Temp: 28°c / 82°f
Humidity: 39.6%

METAR: OAJL 231555Z VRB03KT 8000 HZ CLR 28/13 A2976 RMK AO2A SLP038 T02790125

(Powered by phpweather)
Airport Radio Frequencies
Tower: 122.2
Nearby VORs <50NM
Nearby NDBs
Runway 16 / 34
Dimensions:1223.1 x 23.2m 4013' x 76'ft
Surface:Asphalt
Runway 16 [A]Runway 34 [B]
Heading:162°TH 342°TH
Lat:
Lng:
33° 54' 28.8"N
70° 4' 9.72"E
33° 53' 51.2"N
70° 4' 24.28"E
User Notes and Comments
33° 54' 10" N / 70° 4' 17" E
Distance To
Airport ID:
Nearby Airports
(C) JALALABAD 42.1 NM
OAJL ( WX ) NE 35°
(U) THAL 46.4 NM
OP23 SE 140°
(C) Kabul Intl 67.1 NM
OAKB NW 313°
(C) OPPS Peshawar, Peshawar Intl Airport 83.0 NM
OPPS ( WX ) E 85°
(C) BAGRAM 85.5 NM
OAIX NNW 327°
(C) RISALPUR 109.5 NM
OPRS ( WX ) E 83°
(U) WANA 114.2 NM
OPWN SSW 194°
VFR Chart
Flight Planning at SkyVector.com